CYMX/YMX METAR and TAF weather

Enter ICAO airport designator
Station Type Date Time Source
CYMX METAR 2018/01/24 07:00 UTC NOAA

CYMX 240700Z 28009G19KT 250V330 15SM -RA FEW004 BKN014 OVC028 00/M02 A2948 RMK SF1SC5SC2 PRESRR SLP990


Station Type Date Time Source
CYMX Decoded METAR 2018/01/24 07:00 UTC NOAA

Montreal / Mirabel, Canada (CYMX) 45-41N 074-02W
Jan 24, 2018 - 02:00 AM EST / 2018.01.24 0700 UTC
Wind: from the W (280 degrees) at 10 MPH (9 KT) gusting to 22 MPH (19 KT) (direction variable):0
Visibility: 15 mile(s):0
Sky conditions: overcast
Weather: light rain
Temperature: 32 F (0 C)
Windchill: 23 F (-5 C):1
Dew Point: 28 F (-2 C)
Relative Humidity: 86%
Pressure (altimeter): 29.48 in. Hg (998 hPa)
Pressure tendency: rising rapidly
ob: CYMX 240700Z 28009G19KT 250V330 15SM -RA FEW004 BKN014 OVC028 00/M02 A2948 RMK SF1SC5SC2 PRESRR SLP990
cycle: 7

Station Type Date Time Source
CYMX TAF 2018/01/24 06:42 UTC NOAA

TAF CYMX 240538Z 2406/2506 24010KT 6SM BR SCT004 OVC015
TEMPO 2406/2408 6SM -SN OVC004
FM240800 29010G20KT P6SM OVC015
TEMPO 2408/2411 6SM -SN PROB30 2409/2411 2SM -FZDZ BR
FM241100 29010G20KT P6SM BKN025
FM241600 29010G20KT P6SM FEW025
BECMG 2421/2423 30010KT
BECMG 2502/2504 28007KT
RMK NXT FCST BY 241200Z


Example: see airport list